createdAt,value
2019-01-29T00:01:17.811Z,97059.34
2019-01-29T00:03:48.307Z,97063.13
2019-01-29T00:06:18.823Z,97067.58
2019-01-29T00:08:49.401Z,97075.16
2019-01-29T00:11:20.108Z,97069.16
2019-01-29T00:13:50.869Z,97074.73
2019-01-29T00:16:21.418Z,97080.59
2019-01-29T00:18:51.920Z,97085.29
2019-01-29T00:21:22.459Z,97083.47
2019-01-29T00:23:53.132Z,97089.77
2019-01-29T00:26:25.575Z,97089.06
2019-01-29T00:28:56.080Z,97094.94
2019-01-29T00:31:26.898Z,97093.07
2019-01-29T00:33:57.455Z,97093.06
2019-01-29T00:36:27.943Z,97095.97
2019-01-29T00:38:58.484Z,97100.48
2019-01-29T00:41:29.163Z,97103.22
2019-01-29T00:43:59.967Z,97101.67
2019-01-29T00:46:30.569Z,97109.27
2019-01-29T00:49:01.091Z,97107.47
2019-01-29T00:51:31.984Z,97108.29
2019-01-29T00:54:02.788Z,97111.91
2019-01-29T00:56:33.499Z,97118.39
2019-01-29T00:59:04.167Z,97113.97
2019-01-29T01:01:34.922Z,97127.53
2019-01-29T01:04:06.031Z,97128.23
2019-01-29T01:06:36.872Z,97128.50
2019-01-29T01:09:09.963Z,97128.89
2019-01-29T01:11:40.771Z,97130.16
2019-01-29T01:14:11.383Z,97133.13
2019-01-29T01:16:42.307Z,97128.41
2019-01-29T01:19:13.348Z,97119.25
2019-01-29T01:21:43.989Z,97125.66
2019-01-29T01:24:14.527Z,97139.33
2019-01-29T01:26:45.053Z,97129.56
2019-01-29T01:29:15.575Z,97142.80
2019-01-29T01:31:46.199Z,97147.16
2019-01-29T01:34:16.715Z,97148.67
2019-01-29T01:36:47.210Z,97150.17
2019-01-29T01:39:18.017Z,97147.03
2019-01-29T01:41:48.526Z,97159.61
2019-01-29T01:44:19.254Z,97163.52
2019-01-29T01:46:50.022Z,97164.42
2019-01-29T01:49:20.593Z,97166.14
2019-01-29T01:51:51.122Z,97163.14
2019-01-29T01:54:21.668Z,97161.30
2019-01-29T01:56:53.758Z,97165.71
2019-01-29T01:59:25.386Z,97172.70
2019-01-29T02:01:56.089Z,97167.92
2019-01-29T02:04:26.924Z,97169.29
2019-01-29T02:06:57.455Z,97178.06
2019-01-29T02:09:28.306Z,97176.37
2019-01-29T02:11:59.133Z,97175.58
2019-01-29T02:14:29.681Z,97183.62
2019-01-29T02:17:00.251Z,97176.59
2019-01-29T02:19:31.427Z,97187.39
2019-01-29T02:22:02.256Z,97185.70
2019-01-29T02:24:33.012Z,97196.73
2019-01-29T02:27:03.511Z,97190.13
2019-01-29T02:29:34.342Z,97188.45
2019-01-29T02:32:05.383Z,97194.52
2019-01-29T02:34:36.206Z,97197.09
2019-01-29T02:37:06.804Z,97193.94
2019-01-29T02:39:37.426Z,97198.36
2019-01-29T02:42:08.198Z,97209.67
2019-01-29T02:44:38.727Z,97213.19
2019-01-29T02:47:28.275Z,97214.02
2019-01-29T02:49:59.067Z,97213.86
2019-01-29T02:52:29.596Z,97220.95
2019-01-29T02:55:00.653Z,97221.75
2019-01-29T02:57:31.372Z,97223.74
2019-01-29T03:00:02.257Z,97218.80
2019-01-29T03:02:32.756Z,97226.37
2019-01-29T03:05:03.348Z,97234.33
2019-01-29T03:07:33.949Z,97231.13
2019-01-29T03:10:04.954Z,97232.84
2019-01-29T03:12:35.638Z,97231.48
2019-01-29T03:15:08.569Z,97238.23
2019-01-29T03:17:39.251Z,97234.92
2019-01-29T03:20:10.949Z,97231.11
2019-01-29T03:22:41.553Z,97239.36
2019-01-29T03:25:13.182Z,97241.87
2019-01-29T03:27:43.713Z,97243.72
2019-01-29T03:30:16.660Z,97240.03
2019-01-29T03:32:47.259Z,97241.05
2019-01-29T03:35:18.125Z,97245.20
2019-01-29T03:37:48.608Z,97244.45
2019-01-29T03:40:23.624Z,97242.46
2019-01-29T03:42:54.764Z,97248.73
2019-01-29T03:45:27.399Z,97244.70
2019-01-29T03:47:58.164Z,97251.74
2019-01-29T03:50:29.250Z,97252.55
2019-01-29T03:52:59.930Z,97243.91
2019-01-29T03:55:30.685Z,97248.00
2019-01-29T03:58:01.504Z,97252.00
2019-01-29T04:00:32.275Z,97255.03
2019-01-29T04:03:02.944Z,97253.87
2019-01-29T04:05:33.488Z,97245.66
2019-01-29T04:08:04.683Z,97251.72
2019-01-29T04:10:35.515Z,97256.33
2019-01-29T04:13:06.271Z,97266.17
2019-01-29T04:15:36.809Z,97260.94
2019-01-29T04:18:07.370Z,97258.44
2019-01-29T04:20:38.056Z,97264.42
2019-01-29T04:23:08.523Z,97266.52
2019-01-29T04:25:39.625Z,97269.59
2019-01-29T04:28:10.533Z,97275.59
2019-01-29T04:30:41.360Z,97273.66
2019-01-29T04:33:11.882Z,97266.85
2019-01-29T04:35:42.720Z,97276.11
2019-01-29T04:38:13.402Z,97281.91
2019-01-29T04:40:43.916Z,97284.77
2019-01-29T04:43:14.570Z,97282.75
2019-01-29T04:45:45.092Z,97286.88
2019-01-29T04:48:16.073Z,97281.61
2019-01-29T04:50:46.552Z,97287.66
2019-01-29T04:53:17.322Z,97293.36
2019-01-29T04:55:47.986Z,97294.71
2019-01-29T04:58:20.377Z,97300.03
2019-01-29T05:00:50.914Z,97299.70
2019-01-29T05:03:21.510Z,97311.02
2019-01-29T05:05:52.348Z,97314.77
2019-01-29T05:08:22.985Z,97312.47
2019-01-29T05:10:53.516Z,97318.96
2019-01-29T05:13:25.143Z,97318.70
2019-01-29T05:15:55.667Z,97317.18
2019-01-29T05:18:26.559Z,97314.28
2019-01-29T05:20:57.070Z,97319.89
2019-01-29T05:23:27.883Z,97323.55
2019-01-29T05:25:58.529Z,97332.04
2019-01-29T05:28:29.658Z,97335.38
2019-01-29T05:31:00.181Z,97334.15
2019-01-29T05:33:30.816Z,97335.24
2019-01-29T05:36:01.522Z,97340.50
2019-01-29T05:38:32.022Z,97346.55
2019-01-29T05:41:02.552Z,97346.08
2019-01-29T05:43:33.353Z,97345.78
2019-01-29T05:46:03.988Z,97347.13
2019-01-29T05:48:34.958Z,97351.20
2019-01-29T05:51:05.526Z,97353.11
2019-01-29T05:53:36.065Z,97360.41
2019-01-29T05:56:06.796Z,97356.98
2019-01-29T05:58:37.791Z,97361.09
2019-01-29T06:01:08.315Z,97362.55
2019-01-29T06:03:38.859Z,97361.56
2019-01-29T06:06:09.637Z,97366.45
2019-01-29T06:08:40.192Z,97359.98
2019-01-29T06:11:10.710Z,97371.55
2019-01-29T06:13:41.871Z,97367.56
2019-01-29T06:16:12.686Z,97368.08
2019-01-29T06:18:43.434Z,97367.03
2019-01-29T06:21:14.008Z,97369.54
2019-01-29T06:23:44.690Z,97372.69
2019-01-29T06:26:15.440Z,97367.38
2019-01-29T06:28:46.135Z,97366.87
2019-01-29T06:31:16.716Z,97371.27
2019-01-29T06:33:47.267Z,97371.14
2019-01-29T06:36:17.898Z,97365.97
2019-01-29T06:38:48.669Z,97361.49
2019-01-29T06:41:19.185Z,97362.67
2019-01-29T06:43:49.870Z,97366.30
2019-01-29T06:46:20.398Z,97373.05
2019-01-29T06:48:50.938Z,97371.21
2019-01-29T06:51:21.680Z,97379.69
2019-01-29T06:53:52.231Z,97377.93
2019-01-29T06:56:22.841Z,97378.28
2019-01-29T06:58:53.742Z,97380.10
2019-01-29T07:01:25.493Z,97379.23
2019-01-29T07:03:56.173Z,97374.42
2019-01-29T07:06:27.099Z,97376.17
2019-01-29T07:08:57.635Z,97373.30
2019-01-29T07:11:28.236Z,97375.60
2019-01-29T07:13:59.875Z,97383.75
2019-01-29T07:16:41.342Z,97388.22
2019-01-29T07:19:18.962Z,97398.19
2019-01-29T07:21:49.743Z,97401.14
2019-01-29T07:24:20.358Z,97402.73
2019-01-29T07:26:50.932Z,97397.12
2019-01-29T07:29:21.804Z,97395.95
2019-01-29T07:31:54.421Z,97401.20
2019-01-29T07:34:27.894Z,97405.93
2019-01-29T07:36:58.457Z,97401.13
2019-01-29T07:39:29.112Z,97408.64
2019-01-29T07:41:59.782Z,97406.61
2019-01-29T07:44:30.389Z,97410.90
2019-01-29T07:47:00.950Z,97410.09
2019-01-29T07:49:31.435Z,97406.38
2019-01-29T07:52:02.001Z,97403.61
2019-01-29T07:54:33.454Z,97412.67
2019-01-29T07:57:04.419Z,97405.19
2019-01-29T07:59:35.061Z,97406.41
2019-01-29T08:02:06.115Z,97406.39
2019-01-29T08:04:36.953Z,97416.22
2019-01-29T08:07:07.515Z,97408.06
2019-01-29T08:09:38.144Z,97413.89
2019-01-29T08:12:08.966Z,97407.59
2019-01-29T08:14:39.527Z,97407.08
2019-01-29T08:17:10.089Z,97408.35
2019-01-29T08:19:40.866Z,97413.58
2019-01-29T08:22:11.463Z,97405.77
2019-01-29T08:24:51.607Z,97408.28
2019-01-29T08:27:15.894Z,97405.92
2019-01-29T08:29:46.676Z,97407.66
2019-01-29T08:32:17.350Z,97408.72
2019-01-29T08:34:49.025Z,97408.87
2019-01-29T08:37:19.854Z,97410.89
2019-01-29T08:39:50.396Z,97415.75
2019-01-29T08:42:20.927Z,97417.68
2019-01-29T08:44:51.475Z,97415.39
2019-01-29T08:47:24.551Z,97418.41
2019-01-29T08:49:55.126Z,97420.66
2019-01-29T08:52:26.330Z,97416.48
2019-01-29T08:54:57.041Z,97419.13
2019-01-29T08:57:27.698Z,97412.89
2019-01-29T08:59:58.238Z,97416.45
2019-01-29T09:02:29.105Z,97411.68
2019-01-29T09:05:00.003Z,97411.61
2019-01-29T09:07:30.546Z,97409.55
2019-01-29T09:10:01.102Z,97408.53
2019-01-29T09:12:31.919Z,97403.41
2019-01-29T09:15:02.444Z,97398.30
2019-01-29T09:17:33.333Z,97402.20
2019-01-29T09:20:04.344Z,97402.88
2019-01-29T09:22:35.119Z,97405.39
2019-01-29T09:25:07.191Z,97406.19
2019-01-29T09:27:39.110Z,97404.10
2019-01-29T09:30:14.141Z,97399.38
2019-01-29T09:32:45.098Z,97402.41
2019-01-29T09:35:15.696Z,97394.71
2019-01-29T09:37:46.220Z,97396.05
2019-01-29T09:40:19.759Z,97397.88
2019-01-29T09:42:50.283Z,97402.55
2019-01-29T09:45:21.791Z,97401.73
2019-01-29T09:47:52.397Z,97406.25
2019-01-29T09:50:24.255Z,97406.04
2019-01-29T09:52:55.588Z,97398.84
2019-01-29T09:55:29.289Z,97399.29
2019-01-29T09:57:58.804Z,97404.14
2019-01-29T10:00:32.847Z,97402.53
2019-01-29T10:03:03.590Z,97401.65
2019-01-29T10:05:34.324Z,97397.66
2019-01-29T10:08:06.213Z,97397.23
2019-01-29T10:10:37.093Z,97394.05
2019-01-29T10:13:08.256Z,97391.09
2019-01-29T10:15:39.695Z,97387.89
2019-01-29T10:18:10.329Z,97382.66
2019-01-29T10:20:41.310Z,97373.13
2019-01-29T10:23:12.046Z,97371.09
2019-01-29T10:25:42.556Z,97367.38
2019-01-29T10:28:13.248Z,97367.16
2019-01-29T10:30:44.158Z,97363.07
2019-01-29T10:33:14.756Z,97356.05
2019-01-29T10:35:45.582Z,97354.03
2019-01-29T10:38:16.192Z,97348.23
2019-01-29T10:40:46.765Z,97350.92
2019-01-29T10:43:17.284Z,97350.63
2019-01-29T10:45:48.124Z,97343.91
2019-01-29T10:48:18.634Z,97343.13
2019-01-29T10:50:49.150Z,97337.60
2019-01-29T10:53:19.699Z,97330.69
2019-01-29T10:55:50.272Z,97323.37
2019-01-29T10:58:20.779Z,97319.89
2019-01-29T11:00:51.323Z,97312.89
2019-01-29T11:03:22.338Z,97310.25
2019-01-29T11:05:53.114Z,97306.08
2019-01-29T11:08:23.648Z,97308.44
2019-01-29T11:10:54.161Z,97304.58
2019-01-29T11:13:25.848Z,97296.70
2019-01-29T11:15:56.436Z,97293.57
2019-01-29T11:18:27.240Z,97290.30
2019-01-29T11:20:58.071Z,97286.03
2019-01-29T11:23:28.655Z,97280.33
2019-01-29T11:25:59.234Z,97281.13
2019-01-29T11:28:30.655Z,97276.53
2019-01-29T11:31:01.366Z,97266.08
2019-01-29T11:33:32.458Z,97264.45
2019-01-29T11:36:03.260Z,97262.09
2019-01-29T11:38:34.344Z,97260.94
2019-01-29T11:41:05.542Z,97260.94
2019-01-29T11:43:36.666Z,97257.70
2019-01-29T11:46:08.066Z,97254.97
2019-01-29T11:48:38.724Z,97249.69
2019-01-29T11:51:09.251Z,97244.17
2019-01-29T11:53:40.343Z,97239.91
2019-01-29T11:56:10.914Z,97232.31
2019-01-29T11:58:41.750Z,97225.13
2019-01-29T12:01:15.161Z,97226.13
2019-01-29T12:03:45.716Z,97220.08
2019-01-29T12:06:16.338Z,97219.35
2019-01-29T12:08:46.886Z,97216.86
2019-01-29T12:11:17.555Z,97213.64
2019-01-29T12:13:48.325Z,97215.03
2019-01-29T12:16:19.623Z,97202.39
2019-01-29T12:18:50.405Z,97201.49
2019-01-29T12:21:21.089Z,97194.48
2019-01-29T12:23:51.599Z,97193.27
2019-01-29T12:26:22.538Z,97194.52
2019-01-29T12:28:53.378Z,97188.16
2019-01-29T12:31:23.907Z,97183.95
2019-01-29T12:33:54.447Z,97177.91
2019-01-29T12:36:26.391Z,97173.63
2019-01-29T12:38:57.288Z,97179.18
2019-01-29T12:41:28.427Z,97168.83
2019-01-29T12:43:58.968Z,97169.23
2019-01-29T12:46:29.873Z,97163.38
2019-01-29T12:49:00.472Z,97159.98
2019-01-29T12:51:54.464Z,97156.26
2019-01-29T12:54:26.529Z,97150.92
2019-01-29T12:56:57.337Z,97144.36
2019-01-29T12:59:28.546Z,97148.78
2019-01-29T13:01:59.433Z,97147.95
2019-01-29T13:04:30.305Z,97142.84
2019-01-29T13:07:00.942Z,97138.45
2019-01-29T13:09:31.674Z,97140.52
2019-01-29T13:12:02.445Z,97138.56
2019-01-29T13:14:33.038Z,97137.13
2019-01-29T13:17:03.581Z,97126.91
2019-01-29T13:19:34.730Z,97115.98
2019-01-29T13:22:05.557Z,97115.25
2019-01-29T13:24:36.419Z,97106.19
2019-01-29T13:27:07.103Z,97099.78
2019-01-29T13:29:37.929Z,97101.45
2019-01-29T13:32:08.506Z,97095.66
2019-01-29T13:34:38.991Z,97092.89
2019-01-29T13:37:09.574Z,97089.23
2019-01-29T13:39:40.388Z,97086.98
2019-01-29T13:42:10.949Z,97085.41
2019-01-29T13:44:41.567Z,97082.22
2019-01-29T13:47:12.190Z,97079.83
2019-01-29T13:49:42.863Z,97076.41
2019-01-29T13:52:13.748Z,97075.15
2019-01-29T13:54:44.575Z,97067.68
2019-01-29T13:57:15.440Z,97061.97
2019-01-29T13:59:46.091Z,97065.64
2019-01-29T14:02:16.616Z,97067.17
2019-01-29T14:04:47.459Z,97058.25
2019-01-29T14:07:18.058Z,97058.72
2019-01-29T14:09:48.678Z,97058.80
2019-01-29T14:12:19.572Z,97054.81
2019-01-29T14:14:50.253Z,97049.98
2019-01-29T14:17:20.757Z,97052.87
2019-01-29T14:19:51.527Z,97050.39
2019-01-29T14:22:22.087Z,97052.72
2019-01-29T14:24:52.721Z,97051.87
2019-01-29T14:27:23.633Z,97046.64
2019-01-29T14:29:54.161Z,97043.20
2019-01-29T14:32:24.748Z,97038.02
2019-01-29T14:34:55.642Z,97039.85
2019-01-29T14:37:26.951Z,97039.78
2019-01-29T14:40:19.140Z,97038.55
2019-01-29T14:42:51.338Z,97035.84
2019-01-29T14:45:26.181Z,97031.98
2019-01-29T14:47:56.773Z,97023.75
2019-01-29T14:50:28.540Z,97024.05
2019-01-29T14:52:59.192Z,97026.81
2019-01-29T14:55:31.017Z,97019.38
2019-01-29T14:58:01.938Z,97015.05
2019-01-29T15:00:33.146Z,97014.83
2019-01-29T15:03:03.732Z,97016.31
2019-01-29T15:05:35.415Z,97016.95
2019-01-29T15:08:06.783Z,97016.80
2019-01-29T15:10:37.923Z,97011.73
2019-01-29T15:13:09.533Z,97000.23
2019-01-29T15:15:45.495Z,97001.96
2019-01-29T15:18:26.176Z,97002.67
2019-01-29T15:20:56.816Z,96995.41
2019-01-29T15:23:29.052Z,96991.05
2019-01-29T15:25:59.832Z,96980.44
2019-01-29T15:28:31.047Z,96982.63
2019-01-29T15:31:03.039Z,96980.19
2019-01-29T15:33:34.038Z,96979.17
2019-01-29T15:36:05.757Z,96979.77
2019-01-29T15:38:36.910Z,96976.75
2019-01-29T15:41:08.080Z,96976.80
2019-01-29T15:43:38.970Z,96970.48
2019-01-29T15:46:10.093Z,96970.34
2019-01-29T15:48:40.989Z,96966.08
2019-01-29T15:51:11.800Z,96964.56
2019-01-29T15:53:42.646Z,96961.81
2019-01-29T15:56:13.211Z,96958.74
2019-01-29T15:58:44.168Z,96965.30
2019-01-29T16:01:14.990Z,96955.15
2019-01-29T16:03:46.020Z,96955.66
2019-01-29T16:06:16.639Z,96940.41
2019-01-29T16:08:47.240Z,96935.67
2019-01-29T16:11:17.878Z,96934.96
2019-01-29T16:13:50.940Z,96927.59
2019-01-29T16:16:21.695Z,96924.62
2019-01-29T16:18:52.283Z,96920.58
2019-01-29T16:21:23.031Z,96919.83
2019-01-29T16:23:53.764Z,96920.89
2019-01-29T16:26:24.464Z,96913.44
2019-01-29T16:28:56.838Z,96905.02
2019-01-29T16:31:27.556Z,96904.22
2019-01-29T16:33:58.093Z,96907.84
2019-01-29T16:36:29.197Z,96907.91
2019-01-29T16:38:59.943Z,96904.31
2019-01-29T16:41:32.543Z,96896.78
2019-01-29T16:44:03.134Z,96890.95
2019-01-29T16:46:34.090Z,96889.88
2019-01-29T16:49:06.427Z,96879.94
2019-01-29T16:51:42.363Z,96876.64
2019-01-29T16:54:09.927Z,96872.17
2019-01-29T16:56:40.595Z,96872.69
2019-01-29T16:59:11.406Z,96874.58
2019-01-29T17:01:42.405Z,96866.40
2019-01-29T17:04:19.845Z,96864.52
2019-01-29T17:06:50.201Z,96858.83
2019-01-29T17:09:20.913Z,96859.51
2019-01-29T17:11:51.542Z,96855.33
2019-01-29T17:14:22.146Z,96846.49
2019-01-29T17:16:53.216Z,96847.44
2019-01-29T17:19:24.117Z,96842.47
2019-01-29T17:21:55.010Z,96845.10
2019-01-29T17:24:27.485Z,96841.09
2019-01-29T17:26:58.570Z,96835.33
2019-01-29T17:29:41.466Z,96826.06
2019-01-29T17:32:15.002Z,96825.28
2019-01-29T17:34:47.324Z,96816.07
2019-01-29T17:37:18.845Z,96817.72
2019-01-29T17:39:52.552Z,96812.56
2019-01-29T17:42:24.967Z,96810.16
2019-01-29T17:44:57.005Z,96765.31
2019-01-29T17:47:28.750Z,96800.27
2019-01-29T17:49:59.470Z,96801.37
2019-01-29T17:52:31.435Z,96794.36
2019-01-29T17:55:02.244Z,96793.48
2019-01-29T17:57:33.112Z,96788.59
2019-01-29T18:00:05.301Z,96780.28
2019-01-29T18:02:37.765Z,96771.96
2019-01-29T18:05:08.653Z,96773.44
2019-01-29T18:07:39.593Z,96771.61
2019-01-29T18:10:11.901Z,96768.12
2019-01-29T18:12:43.642Z,96760.30
2019-01-29T18:15:19.136Z,96761.22
2019-01-29T18:17:50.157Z,96756.09
2019-01-29T18:20:21.372Z,96752.51
2019-01-29T18:22:52.080Z,96749.67
2019-01-29T18:25:24.296Z,96749.04
2019-01-29T18:28:00.902Z,96741.97
2019-01-29T18:30:31.239Z,96737.09
2019-01-29T18:33:03.032Z,96732.77
2019-01-29T18:35:34.715Z,96732.13
2019-01-29T18:38:06.898Z,96732.11
2019-01-29T18:40:45.946Z,96728.06
2019-01-29T18:43:16.698Z,96726.48
2019-01-29T18:45:49.284Z,96724.97
2019-01-29T18:48:21.483Z,96718.57
2019-01-29T18:50:53.593Z,96713.77
2019-01-29T18:53:24.246Z,96711.27
2019-01-29T18:56:13.933Z,96703.66
2019-01-29T18:58:44.816Z,96701.20
2019-01-29T19:01:16.738Z,96693.64
2019-01-29T19:03:49.920Z,96692.68
2019-01-29T19:06:20.089Z,96685.30
2019-01-29T19:08:53.769Z,96689.67
2019-01-29T19:11:24.713Z,96686.14
2019-01-29T19:13:55.464Z,96686.32
2019-01-29T19:16:26.113Z,96679.28
2019-01-29T19:18:57.982Z,96678.83
2019-01-29T19:21:28.953Z,96677.67
2019-01-29T19:23:59.869Z,96674.10
2019-01-29T19:26:30.952Z,96672.59
2019-01-29T19:29:03.216Z,96672.19
2019-01-29T19:31:33.852Z,96672.86
2019-01-29T19:34:05.431Z,96666.42
2019-01-29T19:36:37.337Z,96664.54
2019-01-29T19:39:10.258Z,96654.95
2019-01-29T19:41:40.949Z,96653.55
2019-01-29T19:44:11.891Z,96652.05
2019-01-29T19:46:42.805Z,96650.17
2019-01-29T19:49:13.449Z,96646.34
2019-01-29T19:51:44.397Z,96643.99
2019-01-29T19:54:15.364Z,96638.30
2019-01-29T19:56:46.206Z,96632.37
2019-01-29T19:59:16.911Z,96633.23
2019-01-29T20:01:47.640Z,96628.25
2019-01-29T20:04:19.740Z,96630.22
2019-01-29T20:06:50.535Z,96630.30
2019-01-29T20:09:21.370Z,96628.72
2019-01-29T20:11:52.091Z,96621.41
2019-01-29T20:14:23.000Z,96621.91
2019-01-29T20:16:54.255Z,96624.67
2019-01-29T20:19:25.071Z,96617.11
2019-01-29T20:21:56.036Z,96616.45
2019-01-29T20:24:27.549Z,96611.52
2019-01-29T20:26:58.324Z,96612.72
2019-01-29T20:29:30.827Z,96612.03
2019-01-29T20:32:03.711Z,96610.19
2019-01-29T20:34:34.271Z,96602.66
2019-01-29T20:37:05.223Z,96590.59
2019-01-29T20:39:37.287Z,96588.00
2019-01-29T20:42:09.348Z,96587.02
2019-01-29T20:44:40.061Z,96582.05
2019-01-29T20:47:12.304Z,96580.98
2019-01-29T20:49:42.970Z,96572.00
2019-01-29T20:52:13.663Z,96571.53
2019-01-29T20:54:44.264Z,96563.48
2019-01-29T20:57:15.225Z,96561.88
2019-01-29T20:59:46.056Z,96564.00
2019-01-29T21:02:17.136Z,96555.46
2019-01-29T21:04:56.183Z,96553.52
2019-01-29T21:07:27.224Z,96549.67
2019-01-29T21:10:08.872Z,96548.84
2019-01-29T21:12:43.929Z,96546.23
2019-01-29T21:15:16.382Z,96538.33
2019-01-29T21:17:47.209Z,96537.73
2019-01-29T21:20:23.314Z,96533.51
2019-01-29T21:22:54.011Z,96531.90
2019-01-29T21:25:27.245Z,96525.58
2019-01-29T21:28:00.094Z,96513.10
2019-01-29T21:30:33.885Z,96507.91
2019-01-29T21:33:04.543Z,96500.31
2019-01-29T21:35:36.419Z,96496.23
2019-01-29T21:38:07.231Z,96488.78
2019-01-29T21:40:38.339Z,96484.18
2019-01-29T21:43:09.327Z,96479.73
2019-01-29T21:45:40.294Z,96481.83
2019-01-29T21:48:11.362Z,96476.34
2019-01-29T21:50:42.191Z,96470.34
2019-01-29T21:53:13.124Z,96462.73
2019-01-29T21:55:44.155Z,96463.95
2019-01-29T21:58:15.530Z,96462.30
2019-01-29T22:00:47.247Z,96459.38
2019-01-29T22:03:18.458Z,96451.73
2019-01-29T22:05:49.113Z,96452.92
2019-01-29T22:08:20.015Z,96446.08
2019-01-29T22:10:50.613Z,96444.30
2019-01-29T22:13:21.146Z,96439.50
2019-01-29T22:15:51.916Z,96435.80
2019-01-29T22:18:23.874Z,96424.42
2019-01-29T22:20:54.545Z,96419.92
2019-01-29T22:23:25.949Z,96416.00
2019-01-29T22:25:56.845Z,96417.77
2019-01-29T22:28:27.439Z,96410.41
2019-01-29T22:30:58.288Z,96411.19
2019-01-29T22:33:29.191Z,96408.17
2019-01-29T22:36:00.075Z,96406.78
2019-01-29T22:38:30.646Z,96402.74
2019-01-29T22:41:01.214Z,96395.63
2019-01-29T22:43:32.066Z,96394.15
2019-01-29T22:46:03.495Z,96393.64
2019-01-29T22:48:34.272Z,96386.69
2019-01-29T22:51:05.185Z,96385.64
2019-01-29T22:53:35.984Z,96381.43
2019-01-29T22:56:06.718Z,96378.80
2019-01-29T22:58:37.339Z,96376.02
2019-01-29T23:01:35.309Z,96372.41
2019-01-29T23:04:18.496Z,96366.89
2019-01-29T23:07:16.034Z,96367.22
2019-01-29T23:09:46.763Z,96356.33
2019-01-29T23:12:17.607Z,96358.73
2019-01-29T23:14:48.258Z,96348.20
2019-01-29T23:17:19.648Z,96345.96
2019-01-29T23:19:50.181Z,96336.39
2019-01-29T23:22:20.729Z,96339.95
2019-01-29T23:24:54.348Z,96332.45
2019-01-29T23:27:25.085Z,96328.10
2019-01-29T23:29:55.654Z,96326.93
2019-01-29T23:32:26.203Z,96317.70
2019-01-29T23:34:56.769Z,96319.52
2019-01-29T23:37:27.281Z,96307.34
2019-01-29T23:39:57.829Z,96310.73
2019-01-29T23:42:28.398Z,96312.71
2019-01-29T23:44:59.250Z,96300.27
2019-01-29T23:47:30.072Z,96295.75
2019-01-29T23:50:00.754Z,96296.20
2019-01-29T23:52:31.754Z,96291.14
2019-01-29T23:55:03.596Z,96286.97
2019-01-29T23:57:34.420Z,96280.16
